Saint George's, Canada
Current Conditions -  °F | °C
As of 5:50 AM on Friday 31 Oct 2014 (Local Time) from CYJT Reporting Station
Broken Clouds Broken Clouds  
Wind Chill:   Ceiling: 2400
Heat Index:   Visibility: 15mi
Dew Point:   Wind: 7mph
Humidity: 81%   Direction: 290°WNW
Pressure: 29.83"   Gusts: NA
Location:  48.43°N, 58.5°W
Report Text: CYJT 310750Z 29006KT 15SM BKN024 06/03 A2983 RMK SC6 SLP102
Loading
Personal Weather Stations






























Interactive Weather Map
Tropical Storm Tracking
New forecast layout! Learn more

10-Day Weather Forecast

Advertisements
Track Severe Weather on mobile